sensor_id;sensor_type;location;lat;lon;timestamp;pressure;altitude;pressure_sealevel;temperature;humidity
70544;BME280;58097;48.364;-1.224;2023-03-04T00:02:02;100707.91;;;3.27;76.09
70544;BME280;58097;48.364;-1.224;2023-03-04T00:04:28;100708.97;;;3.25;75.62
70544;BME280;58097;48.364;-1.224;2023-03-04T00:06:53;100715.41;;;3.24;75.65
70544;BME280;58097;48.364;-1.224;2023-03-04T00:09:19;100713.56;;;3.24;75.48
70544;BME280;58097;48.364;-1.224;2023-03-04T00:11:44;100713.66;;;3.23;75.28
70544;BME280;58097;48.364;-1.224;2023-03-04T00:14:09;100710.81;;;3.24;75.61
70544;BME280;58097;48.364;-1.224;2023-03-04T00:16:35;100712.97;;;3.19;75.75
70544;BME280;58097;48.364;-1.224;2023-03-04T00:19:00;100711.66;;;3.10;76.50
70544;BME280;58097;48.364;-1.224;2023-03-04T00:21:25;100702.00;;;3.05;76.89
70544;BME280;58097;48.364;-1.224;2023-03-04T00:23:51;100707.66;;;3.02;76.53
70544;BME280;58097;48.364;-1.224;2023-03-04T00:26:16;100710.75;;;2.96;77.05
70544;BME280;58097;48.364;-1.224;2023-03-04T00:28:42;100714.81;;;2.89;79.06
70544;BME280;58097;48.364;-1.224;2023-03-04T00:31:08;100710.25;;;2.89;77.62
70544;BME280;58097;48.364;-1.224;2023-03-04T00:33:34;100712.16;;;2.87;78.40
70544;BME280;58097;48.364;-1.224;2023-03-04T00:36:00;100709.28;;;2.90;77.72
70544;BME280;58097;48.364;-1.224;2023-03-04T00:38:26;100715.63;;;2.91;79.22
70544;BME280;58097;48.364;-1.224;2023-03-04T00:40:52;100709.34;;;2.89;79.74
70544;BME280;58097;48.364;-1.224;2023-03-04T00:43:17;100716.66;;;2.88;79.88
70544;BME280;58097;48.364;-1.224;2023-03-04T00:45:43;100713.94;;;2.88;79.94
70544;BME280;58097;48.364;-1.224;2023-03-04T00:48:08;100718.34;;;2.91;80.03
70544;BME280;58097;48.364;-1.224;2023-03-04T00:50:34;100718.59;;;2.86;81.36
70544;BME280;58097;48.364;-1.224;2023-03-04T00:52:59;100717.47;;;2.90;82.10
70544;BME280;58097;48.364;-1.224;2023-03-04T00:55:26;100721.00;;;2.92;80.82
70544;BME280;58097;48.364;-1.224;2023-03-04T00:57:51;100723.44;;;2.97;81.69
70544;BME280;58097;48.364;-1.224;2023-03-04T01:00:17;100719.94;;;2.95;80.91
70544;BME280;58097;48.364;-1.224;2023-03-04T01:02:42;100717.78;;;3.00;80.05
70544;BME280;58097;48.364;-1.224;2023-03-04T01:05:08;100729.59;;;3.00;80.35
70544;BME280;58097;48.364;-1.224;2023-03-04T01:07:34;100729.41;;;3.03;79.18
70544;BME280;58097;48.364;-1.224;2023-03-04T01:09:59;100727.44;;;3.05;79.49
70544;BME280;58097;48.364;-1.224;2023-03-04T01:12:24;100722.97;;;3.04;79.23
70544;BME280;58097;48.364;-1.224;2023-03-04T01:14:50;100724.63;;;3.07;78.15
70544;BME280;58097;48.364;-1.224;2023-03-04T01:17:15;100730.00;;;3.08;78.42
70544;BME280;58097;48.364;-1.224;2023-03-04T01:19:40;100721.28;;;3.02;79.93
70544;BME280;58097;48.364;-1.224;2023-03-04T01:22:06;100724.03;;;3.02;78.69
70544;BME280;58097;48.364;-1.224;2023-03-04T01:24:31;100724.03;;;3.02;78.00
70544;BME280;58097;48.364;-1.224;2023-03-04T01:26:56;100720.41;;;3.01;77.79
70544;BME280;58097;48.364;-1.224;2023-03-04T01:29:22;100729.31;;;3.05;77.71
70544;BME280;58097;48.364;-1.224;2023-03-04T01:31:47;100726.75;;;3.02;78.95
70544;BME280;58097;48.364;-1.224;2023-03-04T01:34:13;100724.81;;;3.04;78.26
70544;BME280;58097;48.364;-1.224;2023-03-04T01:36:38;100723.06;;;3.03;77.67
70544;BME280;58097;48.364;-1.224;2023-03-04T01:39:04;100712.22;;;3.01;77.06
70544;BME280;58097;48.364;-1.224;2023-03-04T01:41:30;100713.31;;;2.99;77.30
70544;BME280;58097;48.364;-1.224;2023-03-04T01:43:57;100712.03;;;2.90;79.16
70544;BME280;58097;48.364;-1.224;2023-03-04T01:46:25;100713.25;;;2.85;79.28
70544;BME280;58097;48.364;-1.224;2023-03-04T01:48:50;100708.94;;;2.80;78.42
70544;BME280;58097;48.364;-1.224;2023-03-04T01:51:17;100710.50;;;2.85;78.63
70544;BME280;58097;48.364;-1.224;2023-03-04T01:53:45;100711.78;;;2.79;77.72
70544;BME280;58097;48.364;-1.224;2023-03-04T01:58:41;100712.56;;;2.81;77.58
70544;BME280;58097;48.364;-1.224;2023-03-04T02:01:09;100713.63;;;2.78;78.72
70544;BME280;58097;48.364;-1.224;2023-03-04T02:03:34;100720.06;;;2.77;78.44
70544;BME280;58097;48.364;-1.224;2023-03-04T02:06:00;100714.78;;;2.74;77.83
70544;BME280;58097;48.364;-1.224;2023-03-04T02:08:26;100711.25;;;2.72;77.23
70544;BME280;58097;48.364;-1.224;2023-03-04T02:10:52;100711.34;;;2.71;76.64
70544;BME280;58097;48.364;-1.224;2023-03-04T02:13:18;100709.69;;;2.68;76.35
70544;BME280;58097;48.364;-1.224;2023-03-04T02:15:44;100711.63;;;2.66;76.03
70544;BME280;58097;48.364;-1.224;2023-03-04T02:23:15;100707.88;;;2.53;75.43
70544;BME280;58097;48.364;-1.224;2023-03-04T02:28:32;100715.63;;;2.45;75.30
70544;BME280;58097;48.364;-1.224;2023-03-04T02:30:57;100712.31;;;2.40;75.29
70544;BME280;58097;48.364;-1.224;2023-03-04T02:33:23;100712.47;;;2.37;75.39
70544;BME280;58097;48.364;-1.224;2023-03-04T02:35:48;100709.16;;;2.32;75.26
70544;BME280;58097;48.364;-1.224;2023-03-04T02:38:14;100710.09;;;2.31;75.34
70544;BME280;58097;48.364;-1.224;2023-03-04T02:40:41;100713.97;;;2.27;75.22
70544;BME280;58097;48.364;-1.224;2023-03-04T02:43:10;100707.63;;;2.26;77.14
70544;BME280;58097;48.364;-1.224;2023-03-04T02:45:42;100709.16;;;2.32;77.15
70544;BME280;58097;48.364;-1.224;2023-03-04T02:48:09;100703.84;;;2.29;76.29
70544;BME280;58097;48.364;-1.224;2023-03-04T02:50:39;100704.22;;;2.23;75.63
70544;BME280;58097;48.364;-1.224;2023-03-04T02:53:06;100700.69;;;2.21;75.60
70544;BME280;58097;48.364;-1.224;2023-03-04T02:55:32;100695.50;;;2.16;75.29
70544;BME280;58097;48.364;-1.224;2023-03-04T02:57:57;100695.69;;;2.13;75.45
70544;BME280;58097;48.364;-1.224;2023-03-04T03:00:23;100695.78;;;2.11;75.23
70544;BME280;58097;48.364;-1.224;2023-03-04T03:02:48;100692.44;;;2.06;75.21
70544;BME280;58097;48.364;-1.224;2023-03-04T03:05:14;100696.38;;;2.01;75.11
70544;BME280;58097;48.364;-1.224;2023-03-04T03:07:39;100701.22;;;1.96;74.95
70544;BME280;58097;48.364;-1.224;2023-03-04T03:10:05;100696.91;;;1.92;75.13
70544;BME280;58097;48.364;-1.224;2023-03-04T03:12:30;100691.63;;;1.89;75.33
70544;BME280;58097;48.364;-1.224;2023-03-04T03:14:56;100698.50;;;1.80;75.17
70544;BME280;58097;48.364;-1.224;2023-03-04T03:17:21;100694.97;;;1.78;75.42
70544;BME280;58097;48.364;-1.224;2023-03-04T03:19:46;100698.69;;;1.77;75.46
70544;BME280;58097;48.364;-1.224;2023-03-04T03:22:12;100701.50;;;1.75;75.42
70544;BME280;58097;48.364;-1.224;2023-03-04T03:24:37;100697.25;;;1.70;75.08
70544;BME280;58097;48.364;-1.224;2023-03-04T03:27:03;100701.91;;;1.68;75.14
70544;BME280;58097;48.364;-1.224;2023-03-04T03:29:28;100704.78;;;1.65;74.57
70544;BME280;58097;48.364;-1.224;2023-03-04T03:31:53;100704.09;;;1.61;74.74
70544;BME280;58097;48.364;-1.224;2023-03-04T03:34:21;100700.56;;;1.59;74.72
70544;BME280;58097;48.364;-1.224;2023-03-04T03:36:46;100698.91;;;1.57;74.20
70544;BME280;58097;48.364;-1.224;2023-03-04T03:39:11;100701.53;;;1.58;74.50
70544;BME280;58097;48.364;-1.224;2023-03-04T03:41:37;100705.22;;;1.57;74.73
70544;BME280;58097;48.364;-1.224;2023-03-04T03:44:02;100701.63;;;1.57;75.10
70544;BME280;58097;48.364;-1.224;2023-03-04T03:46:27;100700.66;;;1.58;75.10
70544;BME280;58097;48.364;-1.224;2023-03-04T03:48:54;100707.94;;;1.57;75.17
70544;BME280;58097;48.364;-1.224;2023-03-04T03:51:19;100701.88;;;1.52;75.01
70544;BME280;58097;48.364;-1.224;2023-03-04T03:53:44;100706.63;;;1.48;74.96
70544;BME280;58097;48.364;-1.224;2023-03-04T03:56:10;100704.06;;;1.45;74.83
70544;BME280;58097;48.364;-1.224;2023-03-04T03:58:35;100700.47;;;1.45;74.97
70544;BME280;58097;48.364;-1.224;2023-03-04T04:01:00;100707.59;;;1.47;74.91
70544;BME280;58097;48.364;-1.224;2023-03-04T04:03:26;100705.75;;;1.48;74.98
70544;BME280;58097;48.364;-1.224;2023-03-04T04:05:51;100701.72;;;1.55;75.63
70544;BME280;58097;48.364;-1.224;2023-03-04T04:08:17;100705.06;;;1.60;76.07
70544;BME280;58097;48.364;-1.224;2023-03-04T04:10:43;100699.53;;;1.62;76.43
70544;BME280;58097;48.364;-1.224;2023-03-04T04:13:08;100694.06;;;1.62;76.82
70544;BME280;58097;48.364;-1.224;2023-03-04T04:15:34;100696.78;;;1.62;77.28
70544;BME280;58097;48.364;-1.224;2023-03-04T04:18:00;100701.47;;;1.60;77.41
70544;BME280;58097;48.364;-1.224;2023-03-04T04:20:26;100702.34;;;1.60;77.34
70544;BME280;58097;48.364;-1.224;2023-03-04T04:22:51;100704.00;;;1.63;77.42
70544;BME280;58097;48.364;-1.224;2023-03-04T04:25:16;100702.94;;;1.65;77.99
70544;BME280;58097;48.364;-1.224;2023-03-04T04:27:42;100706.72;;;1.63;77.11
70544;BME280;58097;48.364;-1.224;2023-03-04T04:30:08;100702.41;;;1.59;76.66
70544;BME280;58097;48.364;-1.224;2023-03-04T04:32:33;100702.34;;;1.60;76.50
70544;BME280;58097;48.364;-1.224;2023-03-04T04:34:58;100705.22;;;1.57;76.21
70544;BME280;58097;48.364;-1.224;2023-03-04T04:37:24;100700.75;;;1.56;76.84
70544;BME280;58097;48.364;-1.224;2023-03-04T04:39:49;100700.91;;;1.53;76.28
70544;BME280;58097;48.364;-1.224;2023-03-04T04:42:15;100696.53;;;1.50;76.12
70544;BME280;58097;48.364;-1.224;2023-03-04T04:44:41;100697.50;;;1.49;75.84
70544;BME280;58097;48.364;-1.224;2023-03-04T04:47:06;100702.22;;;1.46;75.98
70544;BME280;58097;48.364;-1.224;2023-03-04T04:49:32;100705.97;;;1.43;75.65
70544;BME280;58097;48.364;-1.224;2023-03-04T04:51:57;100696.13;;;1.41;76.02
70544;BME280;58097;48.364;-1.224;2023-03-04T04:54:22;100707.91;;;1.41;76.01
70544;BME280;58097;48.364;-1.224;2023-03-04T04:56:49;100706.06;;;1.42;76.89
70544;BME280;58097;48.364;-1.224;2023-03-04T04:59:14;100711.84;;;1.36;77.40
70544;BME280;58097;48.364;-1.224;2023-03-04T05:01:40;100702.88;;;1.34;76.97
70544;BME280;58097;48.364;-1.224;2023-03-04T05:04:05;100711.75;;;1.37;76.89
70544;BME280;58097;48.364;-1.224;2023-03-04T05:06:31;100716.50;;;1.34;76.26
70544;BME280;58097;48.364;-1.224;2023-03-04T05:08:56;100715.72;;;1.32;76.12
70544;BME280;58097;48.364;-1.224;2023-03-04T05:11:22;100719.31;;;1.32;76.25
70544;BME280;58097;48.364;-1.224;2023-03-04T05:13:48;100713.88;;;1.32;76.52
70544;BME280;58097;48.364;-1.224;2023-03-04T05:16:14;100718.50;;;1.30;76.28
70544;BME280;58097;48.364;-1.224;2023-03-04T05:18:40;100722.13;;;1.31;76.09
70544;BME280;58097;48.364;-1.224;2023-03-04T05:21:06;100723.16;;;1.28;75.88
70544;BME280;58097;48.364;-1.224;2023-03-04T05:23:34;100717.00;;;1.24;75.38
70544;BME280;58097;48.364;-1.224;2023-03-04T05:26:01;100719.91;;;1.21;75.43
70544;BME280;58097;48.364;-1.224;2023-03-04T05:28:26;100723.75;;;1.17;75.06
70544;BME280;58097;48.364;-1.224;2023-03-04T05:30:52;100725.59;;;1.17;75.42
70544;BME280;58097;48.364;-1.224;2023-03-04T05:33:18;100720.28;;;1.14;75.56
70544;BME280;58097;48.364;-1.224;2023-03-04T05:35:44;100718.59;;;1.11;75.37
70544;BME280;58097;48.364;-1.224;2023-03-04T05:38:11;100719.75;;;1.07;75.23
70544;BME280;58097;48.364;-1.224;2023-03-04T05:40:37;100723.25;;;1.09;75.67
70544;BME280;58097;48.364;-1.224;2023-03-04T05:43:03;100724.06;;;1.11;75.99
70544;BME280;58097;48.364;-1.224;2023-03-04T05:45:29;100723.09;;;1.12;75.95
70544;BME280;58097;48.364;-1.224;2023-03-04T05:47:54;100727.66;;;1.12;76.06
70544;BME280;58097;48.364;-1.224;2023-03-04T05:50:21;100723.97;;;1.13;76.64
70544;BME280;58097;48.364;-1.224;2023-03-04T05:52:47;100721.41;;;1.10;77.15
70544;BME280;58097;48.364;-1.224;2023-03-04T05:55:14;100726.88;;;1.10;76.89
70544;BME280;58097;48.364;-1.224;2023-03-04T05:57:39;100721.41;;;1.10;77.01
70544;BME280;58097;48.364;-1.224;2023-03-04T06:00:05;100735.81;;;1.12;77.23
70544;BME280;58097;48.364;-1.224;2023-03-04T06:02:34;100731.34;;;1.11;78.59
70544;BME280;58097;48.364;-1.224;2023-03-04T06:04:59;100733.91;;;1.14;77.49
70544;BME280;58097;48.364;-1.224;2023-03-04T06:07:25;100735.59;;;1.16;77.18
70544;BME280;58097;48.364;-1.224;2023-03-04T06:09:50;100741.94;;;1.17;76.96
70544;BME280;58097;48.364;-1.224;2023-03-04T06:12:15;100738.38;;;1.15;77.22
70544;BME280;58097;48.364;-1.224;2023-03-04T06:14:41;100735.81;;;1.12;78.29
70544;BME280;58097;48.364;-1.224;2023-03-04T06:17:06;100742.94;;;1.14;77.67
70544;BME280;58097;48.364;-1.224;2023-03-04T06:19:31;100743.69;;;1.18;77.56
70544;BME280;58097;48.364;-1.224;2023-03-04T06:21:57;100744.66;;;1.17;77.91
70544;BME280;58097;48.364;-1.224;2023-03-04T06:24:23;100746.41;;;1.18;77.70
70544;BME280;58097;48.364;-1.224;2023-03-04T06:26:48;100739.13;;;1.18;76.73
70544;BME280;58097;48.364;-1.224;2023-03-04T06:29:14;100745.38;;;1.20;77.12
70544;BME280;58097;48.364;-1.224;2023-03-04T06:31:39;100745.28;;;1.22;76.81
70544;BME280;58097;48.364;-1.224;2023-03-04T06:34:07;100753.38;;;1.23;76.76
70544;BME280;58097;48.364;-1.224;2023-03-04T06:36:32;100757.06;;;1.22;76.85
70544;BME280;58097;48.364;-1.224;2023-03-04T06:38:58;100757.94;;;1.23;77.11
70544;BME280;58097;48.364;-1.224;2023-03-04T06:41:23;100771.56;;;1.23;77.48
70544;BME280;58097;48.364;-1.224;2023-03-04T06:43:48;100768.66;;;1.26;77.00
70544;BME280;58097;48.364;-1.224;2023-03-04T06:46:14;100773.41;;;1.22;76.57
70544;BME280;58097;48.364;-1.224;2023-03-04T06:48:39;100780.69;;;1.22;76.22
70544;BME280;58097;48.364;-1.224;2023-03-04T06:51:09;100787.09;;;1.21;75.91
70544;BME280;58097;48.364;-1.224;2023-03-04T06:53:35;100784.38;;;1.21;76.11
70544;BME280;58097;48.364;-1.224;2023-03-04T06:56:00;100780.75;;;1.20;76.17
70544;BME280;58097;48.364;-1.224;2023-03-04T06:58:25;100787.09;;;1.21;76.50
70544;BME280;58097;48.364;-1.224;2023-03-04T07:00:51;100784.38;;;1.21;78.12
70544;BME280;58097;48.364;-1.224;2023-03-04T07:03:16;100785.09;;;1.24;78.10
70544;BME280;58097;48.364;-1.224;2023-03-04T07:05:42;100789.16;;;1.33;78.32
70544;BME280;58097;48.364;-1.224;2023-03-04T07:08:07;100797.88;;;1.40;78.36
70544;BME280;58097;48.364;-1.224;2023-03-04T07:10:33;100801.38;;;1.42;79.50
70544;BME280;58097;48.364;-1.224;2023-03-04T07:12:59;100795.84;;;1.43;79.01
70544;BME280;58097;48.364;-1.224;2023-03-04T07:15:25;100800.84;;;1.52;78.44
70544;BME280;58097;48.364;-1.224;2023-03-04T07:17:50;100800.59;;;1.57;77.77
70544;BME280;58097;48.364;-1.224;2023-03-04T07:20:15;100802.00;;;1.64;77.79
70544;BME280;58097;48.364;-1.224;2023-03-04T07:22:41;100806.25;;;1.70;77.74
70544;BME280;58097;48.364;-1.224;2023-03-04T07:25:06;100808.22;;;1.83;78.03
70544;BME280;58097;48.364;-1.224;2023-03-04T07:27:32;100814.13;;;1.92;77.59
70544;BME280;58097;48.364;-1.224;2023-03-04T07:29:57;100812.91;;;1.97;77.08
70544;BME280;58097;48.364;-1.224;2023-03-04T07:32:23;100810.88;;;2.01;76.72
70544;BME280;58097;48.364;-1.224;2023-03-04T07:34:48;100818.97;;;2.02;76.58
70544;BME280;58097;48.364;-1.224;2023-03-04T07:37:14;100820.78;;;2.03;76.54
70544;BME280;58097;48.364;-1.224;2023-03-04T07:39:39;100812.41;;;2.06;76.67
70544;BME280;58097;48.364;-1.224;2023-03-04T07:42:04;100824.81;;;2.12;76.61
70544;BME280;58097;48.364;-1.224;2023-03-04T07:44:30;100821.91;;;2.15;76.40
70544;BME280;58097;48.364;-1.224;2023-03-04T07:46:55;100822.72;;;2.17;76.45
70544;BME280;58097;48.364;-1.224;2023-03-04T07:49:20;100824.03;;;2.26;76.63
70544;BME280;58097;48.364;-1.224;2023-03-04T07:51:46;100820.81;;;2.35;76.80
70544;BME280;58097;48.364;-1.224;2023-03-04T07:54:11;100815.00;;;2.41;76.57
70544;BME280;58097;48.364;-1.224;2023-03-04T07:56:37;100818.75;;;2.54;77.10
70544;BME280;58097;48.364;-1.224;2023-03-04T07:59:02;100821.78;;;2.65;76.97
70544;BME280;58097;48.364;-1.224;2023-03-04T08:01:33;100823.09;;;2.74;76.70
70544;BME280;58097;48.364;-1.224;2023-03-04T08:03:59;100817.69;;;2.88;76.78
70544;BME280;58097;48.364;-1.224;2023-03-04T08:06:25;100824.28;;;3.00;76.66
70544;BME280;58097;48.364;-1.224;2023-03-04T08:08:58;100825.56;;;3.08;76.66
70544;BME280;58097;48.364;-1.224;2023-03-04T08:11:24;100821.41;;;3.17;76.50
70544;BME280;58097;48.364;-1.224;2023-03-04T08:13:49;100823.78;;;3.23;76.46
70544;BME280;58097;48.364;-1.224;2023-03-04T08:16:18;100823.91;;;3.36;76.58
70544;BME280;58097;48.364;-1.224;2023-03-04T08:18:45;100826.94;;;3.46;76.50
70544;BME280;58097;48.364;-1.224;2023-03-04T08:21:14;100836.38;;;3.56;76.33
70544;BME280;58097;48.364;-1.224;2023-03-04T08:23:40;100840.66;;;3.60;76.41
70544;BME280;58097;48.364;-1.224;2023-03-04T08:26:13;100846.78;;;3.79;76.38
70544;BME280;58097;48.364;-1.224;2023-03-04T08:28:39;100852.03;;;3.96;76.71
70544;BME280;58097;48.364;-1.224;2023-03-04T08:31:05;100857.34;;;4.14;75.59
70544;BME280;58097;48.364;-1.224;2023-03-04T08:33:31;100854.28;;;4.32;76.13
70544;BME280;58097;48.364;-1.224;2023-03-04T08:35:57;100867.28;;;4.57;75.31
70544;BME280;58097;48.364;-1.224;2023-03-04T08:38:23;100855.44;;;4.71;75.65
70544;BME280;58097;48.364;-1.224;2023-03-04T08:40:53;100849.50;;;4.91;75.19
70544;BME280;58097;48.364;-1.224;2023-03-04T08:43:18;100848.06;;;5.13;74.39
70544;BME280;58097;48.364;-1.224;2023-03-04T08:45:44;100842.75;;;5.24;73.00
70544;BME280;58097;48.364;-1.224;2023-03-04T08:48:10;100845.97;;;5.43;74.08
70544;BME280;58097;48.364;-1.224;2023-03-04T08:50:35;100844.91;;;5.58;73.33
70544;BME280;58097;48.364;-1.224;2023-03-04T08:53:01;100841.84;;;5.76;73.71
70544;BME280;58097;48.364;-1.224;2023-03-04T08:55:26;100847.47;;;5.87;72.79
70544;BME280;58097;48.364;-1.224;2023-03-04T08:57:51;100845.53;;;6.02;74.05
70544;BME280;58097;48.364;-1.224;2023-03-04T09:00:17;100850.91;;;6.03;71.65
70544;BME280;58097;48.364;-1.224;2023-03-04T09:02:43;100846.41;;;5.89;71.58
70544;BME280;58097;48.364;-1.224;2023-03-04T09:05:08;100846.19;;;5.93;71.88
70544;BME280;58097;48.364;-1.224;2023-03-04T09:07:33;100843.28;;;5.69;70.04
70544;BME280;58097;48.364;-1.224;2023-03-04T09:09:59;100846.84;;;5.44;70.11
70544;BME280;58097;48.364;-1.224;2023-03-04T09:12:24;100839.16;;;5.49;70.89
70544;BME280;58097;48.364;-1.224;2023-03-04T09:14:49;100850.63;;;5.55;71.85
70544;BME280;58097;48.364;-1.224;2023-03-04T09:17:15;100851.28;;;5.59;71.59
70544;BME280;58097;48.364;-1.224;2023-03-04T09:19:40;100842.19;;;5.71;71.99
70544;BME280;58097;48.364;-1.224;2023-03-04T09:22:06;100841.44;;;5.82;72.36
70544;BME280;58097;48.364;-1.224;2023-03-04T09:24:31;100833.13;;;5.96;72.42
70544;BME280;58097;48.364;-1.224;2023-03-04T09:26:57;100840.81;;;6.04;71.24
70544;BME280;58097;48.364;-1.224;2023-03-04T09:29:22;100842.34;;;5.95;71.16
70544;BME280;58097;48.364;-1.224;2023-03-04T09:31:48;100841.59;;;5.93;70.84
70544;BME280;58097;48.364;-1.224;2023-03-04T09:34:13;100839.47;;;5.84;70.37
70544;BME280;58097;48.364;-1.224;2023-03-04T09:36:38;100835.75;;;5.98;71.51
70544;BME280;58097;48.364;-1.224;2023-03-04T09:39:04;100834.56;;;6.02;70.34
70544;BME280;58097;48.364;-1.224;2023-03-04T09:41:41;100826.56;;;6.11;70.52
70544;BME280;58097;48.364;-1.224;2023-03-04T09:46:55;100833.75;;;6.50;69.25
70544;BME280;58097;48.364;-1.224;2023-03-04T09:49:22;100834.63;;;6.51;66.99
70544;BME280;58097;48.364;-1.224;2023-03-04T09:57:42;100825.81;;;6.59;68.32
70544;BME280;58097;48.364;-1.224;2023-03-04T10:00:24;100823.50;;;6.65;67.50
70544;BME280;58097;48.364;-1.224;2023-03-04T10:05:58;100833.06;;;6.96;67.20
70544;BME280;58097;48.364;-1.224;2023-03-04T10:08:55;100827.28;;;7.12;66.70
70544;BME280;58097;48.364;-1.224;2023-03-04T10:11:31;100824.81;;;7.20;67.35
70544;BME280;58097;48.364;-1.224;2023-03-04T10:16:43;100826.69;;;6.96;65.76
70544;BME280;58097;48.364;-1.224;2023-03-04T10:21:41;100836.13;;;6.92;66.29
70544;BME280;58097;48.364;-1.224;2023-03-04T10:24:19;100840.69;;;6.80;65.08
70544;BME280;58097;48.364;-1.224;2023-03-04T10:26:51;100845.47;;;6.65;66.03
70544;BME280;58097;48.364;-1.224;2023-03-04T10:29:20;100841.41;;;6.58;66.16
70544;BME280;58097;48.364;-1.224;2023-03-04T10:31:47;100846.25;;;6.67;67.64
70544;BME280;58097;48.364;-1.224;2023-03-04T10:34:14;100846.91;;;6.58;67.84
70544;BME280;58097;48.364;-1.224;2023-03-04T10:39:43;100836.06;;;6.44;67.72
70544;BME280;58097;48.364;-1.224;2023-03-04T10:44:41;100838.84;;;6.18;68.28
70544;BME280;58097;48.364;-1.224;2023-03-04T10:47:09;100837.75;;;6.08;68.46
70544;BME280;58097;48.364;-1.224;2023-03-04T10:49:51;100842.56;;;6.05;68.95
70544;BME280;58097;48.364;-1.224;2023-03-04T10:52:29;100840.59;;;6.07;69.70
70544;BME280;58097;48.364;-1.224;2023-03-04T10:54:57;100842.16;;;6.11;69.88
70544;BME280;58097;48.364;-1.224;2023-03-04T10:57:32;100837.84;;;6.19;70.23
70544;BME280;58097;48.364;-1.224;2023-03-04T10:59:59;100828.16;;;6.27;69.94
70544;BME280;58097;48.364;-1.224;2023-03-04T11:02:32;100835.63;;;6.25;69.88
70544;BME280;58097;48.364;-1.224;2023-03-04T11:07:41;100829.16;;;6.26;69.29
70544;BME280;58097;48.364;-1.224;2023-03-04T11:12:49;100838.72;;;6.20;69.00
70544;BME280;58097;48.364;-1.224;2023-03-04T11:15:17;100831.16;;;6.24;68.49
70544;BME280;58097;48.364;-1.224;2023-03-04T11:17:49;100825.22;;;6.17;68.80
70544;BME280;58097;48.364;-1.224;2023-03-04T11:22:53;100829.72;;;6.18;68.80
70544;BME280;58097;48.364;-1.224;2023-03-04T11:25:29;100813.03;;;6.21;69.01
70544;BME280;58097;48.364;-1.224;2023-03-04T11:28:03;100817.75;;;6.19;69.24
70544;BME280;58097;48.364;-1.224;2023-03-04T11:31:05;100831.28;;;6.09;69.08
70544;BME280;58097;48.364;-1.224;2023-03-04T11:33:55;100814.38;;;6.15;69.26
70544;BME280;58097;48.364;-1.224;2023-03-04T11:38:54;100808.53;;;6.20;68.47
70544;BME280;58097;48.364;-1.224;2023-03-04T11:41:39;100798.31;;;6.22;68.91
70544;BME280;58097;48.364;-1.224;2023-03-04T11:44:07;100796.63;;;6.32;69.38
70544;BME280;58097;48.364;-1.224;2023-03-04T11:49:54;100800.59;;;6.28;68.76
70544;BME280;58097;48.364;-1.224;2023-03-04T11:52:44;100799.31;;;6.21;67.52
70544;BME280;58097;48.364;-1.224;2023-03-04T11:55:34;100793.81;;;6.21;67.89
70544;BME280;58097;48.364;-1.224;2023-03-04T11:58:22;100797.44;;;6.21;67.42
70544;BME280;58097;48.364;-1.224;2023-03-04T12:01:14;100787.16;;;6.12;66.44
70544;BME280;58097;48.364;-1.224;2023-03-04T12:03:53;100789.00;;;6.12;66.68
70544;BME280;58097;48.364;-1.224;2023-03-04T12:09:33;100775.13;;;6.26;68.49
70544;BME280;58097;48.364;-1.224;2023-03-04T12:20:29;100754.91;;;6.40;67.57
70544;BME280;58097;48.364;-1.224;2023-03-04T12:25:46;100748.50;;;6.52;66.89
70544;BME280;58097;48.364;-1.224;2023-03-04T12:36:44;100735.34;;;6.44;66.32
70544;BME280;58097;48.364;-1.224;2023-03-04T12:39:28;100728.09;;;6.43;66.67
70544;BME280;58097;48.364;-1.224;2023-03-04T12:44:43;100715.81;;;6.60;67.63
70544;BME280;58097;48.364;-1.224;2023-03-04T12:47:40;100727.00;;;6.70;66.83
70544;BME280;58097;48.364;-1.224;2023-03-04T12:53:30;100720.66;;;6.69;66.41
70544;BME280;58097;48.364;-1.224;2023-03-04T12:55:58;100717.78;;;6.71;66.75
70544;BME280;58097;48.364;-1.224;2023-03-04T12:58:26;100719.78;;;6.69;65.80
70544;BME280;58097;48.364;-1.224;2023-03-04T13:03:46;100721.69;;;6.79;67.02
70544;BME280;58097;48.364;-1.224;2023-03-04T13:09:24;100705.44;;;6.76;66.37
70544;BME280;58097;48.364;-1.224;2023-03-04T13:14:23;100698.25;;;6.63;66.22
70544;BME280;58097;48.364;-1.224;2023-03-04T13:16:52;100700.78;;;6.66;65.61
70544;BME280;58097;48.364;-1.224;2023-03-04T13:22:32;100694.81;;;6.72;65.83
70544;BME280;58097;48.364;-1.224;2023-03-04T13:43:43;100688.59;;;6.81;65.52
70544;BME280;58097;48.364;-1.224;2023-03-04T13:51:33;100684.47;;;6.75;65.21
70544;BME280;58097;48.364;-1.224;2023-03-04T13:56:40;100676.81;;;6.68;64.64
70544;BME280;58097;48.364;-1.224;2023-03-04T14:06:42;100660.34;;;6.68;65.64
70544;BME280;58097;48.364;-1.224;2023-03-04T14:09:17;100654.47;;;6.72;66.03
70544;BME280;58097;48.364;-1.224;2023-03-04T14:11:44;100649.75;;;6.74;65.95
70544;BME280;58097;48.364;-1.224;2023-03-04T14:14:13;100641.00;;;6.69;65.58
70544;BME280;58097;48.364;-1.224;2023-03-04T14:16:46;100648.34;;;6.69;66.08
70544;BME280;58097;48.364;-1.224;2023-03-04T14:19:42;100642.09;;;6.67;66.88
70544;BME280;58097;48.364;-1.224;2023-03-04T14:22:38;100643.84;;;6.68;66.50
70544;BME280;58097;48.364;-1.224;2023-03-04T14:27:33;100644.31;;;6.62;66.64
70544;BME280;58097;48.364;-1.224;2023-03-04T14:30:05;100641.41;;;6.52;66.24
70544;BME280;58097;48.364;-1.224;2023-03-04T14:32:31;100633.16;;;6.52;66.84
70544;BME280;58097;48.364;-1.224;2023-03-04T14:35:04;100634.03;;;6.52;67.45
70544;BME280;58097;48.364;-1.224;2023-03-04T14:38:04;100637.41;;;6.56;67.35
70544;BME280;58097;48.364;-1.224;2023-03-04T14:40:37;100639.06;;;6.59;67.68
70544;BME280;58097;48.364;-1.224;2023-03-04T14:43:09;100638.28;;;6.57;66.39
70544;BME280;58097;48.364;-1.224;2023-03-04T14:45:36;100634.28;;;6.49;66.34
70544;BME280;58097;48.364;-1.224;2023-03-04T14:48:06;100625.56;;;6.32;65.74
70544;BME280;58097;48.364;-1.224;2023-03-04T14:50:33;100620.94;;;6.32;66.86
70544;BME280;58097;48.364;-1.224;2023-03-04T14:55:33;100620.06;;;6.32;67.41
70544;BME280;58097;48.364;-1.224;2023-03-04T14:58:18;100608.22;;;6.31;66.61
70544;BME280;58097;48.364;-1.224;2023-03-04T15:00:44;100615.47;;;6.32;67.60